sensor_id;sensor_type;location;lat;lon;timestamp;temperature;humidity
73547;SHT30;61807;48.384;-4.386;2023-04-03T00:00:19;11.19;71.29
73547;SHT30;61807;48.384;-4.386;2023-04-03T00:02:44;11.22;71.43
73547;SHT30;61807;48.384;-4.386;2023-04-03T00:05:10;11.23;71.60
73547;SHT30;61807;48.384;-4.386;2023-04-03T00:07:35;11.23;71.72
73547;SHT30;61807;48.384;-4.386;2023-04-03T00:10:01;11.25;71.77
73547;SHT30;61807;48.384;-4.386;2023-04-03T00:12:26;11.26;71.66
73547;SHT30;61807;48.384;-4.386;2023-04-03T00:14:51;11.25;71.65
73547;SHT30;61807;48.384;-4.386;2023-04-03T00:17:17;11.25;71.56
73547;SHT30;61807;48.384;-4.386;2023-04-03T00:19:42;11.22;71.43
73547;SHT30;61807;48.384;-4.386;2023-04-03T00:22:08;11.19;71.52
73547;SHT30;61807;48.384;-4.386;2023-04-03T00:24:33;11.23;71.51
73547;SHT30;61807;48.384;-4.386;2023-04-03T00:26:58;11.23;71.59
73547;SHT30;61807;48.384;-4.386;2023-04-03T00:29:24;11.23;71.51
73547;SHT30;61807;48.384;-4.386;2023-04-03T00:31:49;11.25;71.55
73547;SHT30;61807;48.384;-4.386;2023-04-03T00:34:15;11.26;71.44
73547;SHT30;61807;48.384;-4.386;2023-04-03T00:36:40;11.26;71.34
73547;SHT30;61807;48.384;-4.386;2023-04-03T00:39:06;11.27;71.25
73547;SHT30;61807;48.384;-4.386;2023-04-03T00:41:31;11.30;71.09
73547;SHT30;61807;48.384;-4.386;2023-04-03T00:43:57;11.32;70.86
73547;SHT30;61807;48.384;-4.386;2023-04-03T00:46:22;11.33;70.86
73547;SHT30;61807;48.384;-4.386;2023-04-03T00:48:48;11.33;70.96
73547;SHT30;61807;48.384;-4.386;2023-04-03T00:51:17;11.33;70.94
73547;SHT30;61807;48.384;-4.386;2023-04-03T00:53:48;11.34;71.09
73547;SHT30;61807;48.384;-4.386;2023-04-03T00:56:19;11.33;71.07
73547;SHT30;61807;48.384;-4.386;2023-04-03T00:59:11;11.33;71.01
73547;SHT30;61807;48.384;-4.386;2023-04-03T01:01:36;11.34;70.91
73547;SHT30;61807;48.384;-4.386;2023-04-03T01:04:03;11.34;70.80
73547;SHT30;61807;48.384;-4.386;2023-04-03T01:06:35;11.37;70.96
73547;SHT30;61807;48.384;-4.386;2023-04-03T01:09:01;11.39;70.76
73547;SHT30;61807;48.384;-4.386;2023-04-03T01:11:27;11.34;70.70
73547;SHT30;61807;48.384;-4.386;2023-04-03T01:13:52;11.32;70.77
73547;SHT30;61807;48.384;-4.386;2023-04-03T01:16:18;11.25;70.58
73547;SHT30;61807;48.384;-4.386;2023-04-03T01:18:45;11.19;70.48
73547;SHT30;61807;48.384;-4.386;2023-04-03T01:24:14;11.05;70.25
73547;SHT30;61807;48.384;-4.386;2023-04-03T01:26:42;10.98;70.26
73547;SHT30;61807;48.384;-4.386;2023-04-03T01:29:08;10.91;70.25
73547;SHT30;61807;48.384;-4.386;2023-04-03T01:31:56;10.82;70.24
73547;SHT30;61807;48.384;-4.386;2023-04-03T01:34:23;10.78;70.20
73547;SHT30;61807;48.384;-4.386;2023-04-03T01:36:49;10.72;70.18
73547;SHT30;61807;48.384;-4.386;2023-04-03T01:39:15;10.67;70.13
73547;SHT30;61807;48.384;-4.386;2023-04-03T01:41:41;10.63;70.12
73547;SHT30;61807;48.384;-4.386;2023-04-03T01:44:06;10.58;70.10
73547;SHT30;61807;48.384;-4.386;2023-04-03T01:46:32;10.53;70.12
73547;SHT30;61807;48.384;-4.386;2023-04-03T01:48:57;10.50;70.02
73547;SHT30;61807;48.384;-4.386;2023-04-03T01:51:23;10.41;69.93
73547;SHT30;61807;48.384;-4.386;2023-04-03T01:53:48;10.37;70.05
73547;SHT30;61807;48.384;-4.386;2023-04-03T01:56:14;10.33;70.10
73547;SHT30;61807;48.384;-4.386;2023-04-03T01:58:39;10.32;70.12
73547;SHT30;61807;48.384;-4.386;2023-04-03T02:01:05;10.26;70.21
73547;SHT30;61807;48.384;-4.386;2023-04-03T02:03:31;10.21;70.19
73547;SHT30;61807;48.384;-4.386;2023-04-03T02:05:57;10.21;70.28
73547;SHT30;61807;48.384;-4.386;2023-04-03T02:08:22;10.17;70.25
73547;SHT30;61807;48.384;-4.386;2023-04-03T02:10:48;10.12;70.31
73547;SHT30;61807;48.384;-4.386;2023-04-03T02:13:14;10.10;70.36
73547;SHT30;61807;48.384;-4.386;2023-04-03T02:15:40;10.05;70.37
73547;SHT30;61807;48.384;-4.386;2023-04-03T02:18:07;10.05;70.37
73547;SHT30;61807;48.384;-4.386;2023-04-03T02:20:32;10.00;70.48
73547;SHT30;61807;48.384;-4.386;2023-04-03T02:22:58;10.02;70.59
73547;SHT30;61807;48.384;-4.386;2023-04-03T02:25:24;10.06;70.57
73547;SHT30;61807;48.384;-4.386;2023-04-03T02:27:49;10.10;70.44
73547;SHT30;61807;48.384;-4.386;2023-04-03T02:30:15;10.10;70.24
73547;SHT30;61807;48.384;-4.386;2023-04-03T02:32:42;10.12;70.30
73547;SHT30;61807;48.384;-4.386;2023-04-03T02:35:09;10.14;70.32
73547;SHT30;61807;48.384;-4.386;2023-04-03T02:37:35;10.17;70.23
73547;SHT30;61807;48.384;-4.386;2023-04-03T02:40:01;10.17;70.13
73547;SHT30;61807;48.384;-4.386;2023-04-03T02:42:26;10.18;70.05
73547;SHT30;61807;48.384;-4.386;2023-04-03T02:44:52;10.24;69.85
73547;SHT30;61807;48.384;-4.386;2023-04-03T02:47:17;10.27;69.86
73547;SHT30;61807;48.384;-4.386;2023-04-03T02:49:43;10.26;70.00
73547;SHT30;61807;48.384;-4.386;2023-04-03T02:52:12;10.32;69.89
73547;SHT30;61807;48.384;-4.386;2023-04-03T02:54:38;10.33;69.80
73547;SHT30;61807;48.384;-4.386;2023-04-03T02:57:03;10.36;69.97
73547;SHT30;61807;48.384;-4.386;2023-04-03T02:59:28;10.37;69.83
73547;SHT30;61807;48.384;-4.386;2023-04-03T03:01:54;10.38;69.72
73547;SHT30;61807;48.384;-4.386;2023-04-03T03:04:20;10.41;69.65
73547;SHT30;61807;48.384;-4.386;2023-04-03T03:06:46;10.41;69.61
73547;SHT30;61807;48.384;-4.386;2023-04-03T03:09:12;10.41;69.72
73547;SHT30;61807;48.384;-4.386;2023-04-03T03:11:38;10.41;69.61
73547;SHT30;61807;48.384;-4.386;2023-04-03T03:14:04;10.43;69.61
73547;SHT30;61807;48.384;-4.386;2023-04-03T03:16:29;10.44;69.41
73547;SHT30;61807;48.384;-4.386;2023-04-03T03:18:55;10.40;69.41
73547;SHT30;61807;48.384;-4.386;2023-04-03T03:21:21;10.44;69.25
73547;SHT30;61807;48.384;-4.386;2023-04-03T03:23:46;10.38;69.38
73547;SHT30;61807;48.384;-4.386;2023-04-03T03:26:12;10.41;69.38
73547;SHT30;61807;48.384;-4.386;2023-04-03T03:28:38;10.41;69.37
73547;SHT30;61807;48.384;-4.386;2023-04-03T03:31:05;10.46;69.35
73547;SHT30;61807;48.384;-4.386;2023-04-03T03:33:31;10.47;69.24
73547;SHT30;61807;48.384;-4.386;2023-04-03T03:35:56;10.47;69.13
73547;SHT30;61807;48.384;-4.386;2023-04-03T03:38:23;10.44;69.07
73547;SHT30;61807;48.384;-4.386;2023-04-03T03:40:49;10.48;68.80
73547;SHT30;61807;48.384;-4.386;2023-04-03T03:43:15;10.46;68.91
73547;SHT30;61807;48.384;-4.386;2023-04-03T03:45:41;10.46;68.85
73547;SHT30;61807;48.384;-4.386;2023-04-03T03:48:07;10.44;68.80
73547;SHT30;61807;48.384;-4.386;2023-04-03T03:50:33;10.44;68.79
73547;SHT30;61807;48.384;-4.386;2023-04-03T03:52:58;10.41;68.89
73547;SHT30;61807;48.384;-4.386;2023-04-03T03:55:24;10.43;68.84
73547;SHT30;61807;48.384;-4.386;2023-04-03T03:57:50;10.40;68.70
73547;SHT30;61807;48.384;-4.386;2023-04-03T04:00:15;10.41;68.37
73547;SHT30;61807;48.384;-4.386;2023-04-03T04:02:41;10.38;68.52
73547;SHT30;61807;48.384;-4.386;2023-04-03T04:05:07;10.41;68.62
73547;SHT30;61807;48.384;-4.386;2023-04-03T04:07:32;10.44;68.47
73547;SHT30;61807;48.384;-4.386;2023-04-03T04:09:57;10.41;68.59
73547;SHT30;61807;48.384;-4.386;2023-04-03T04:12:23;10.46;68.69
73547;SHT30;61807;48.384;-4.386;2023-04-03T04:14:48;10.40;68.84
73547;SHT30;61807;48.384;-4.386;2023-04-03T04:17:14;10.40;68.72
73547;SHT30;61807;48.384;-4.386;2023-04-03T04:19:40;10.38;68.97
73547;SHT30;61807;48.384;-4.386;2023-04-03T04:22:05;10.38;68.99
73547;SHT30;61807;48.384;-4.386;2023-04-03T04:24:30;10.37;69.05
73547;SHT30;61807;48.384;-4.386;2023-04-03T04:26:56;10.37;69.18
73547;SHT30;61807;48.384;-4.386;2023-04-03T04:29:21;10.43;69.07
73547;SHT30;61807;48.384;-4.386;2023-04-03T04:31:47;10.41;69.13
73547;SHT30;61807;48.384;-4.386;2023-04-03T04:34:12;10.44;69.03
73547;SHT30;61807;48.384;-4.386;2023-04-03T04:36:40;10.40;69.03
73547;SHT30;61807;48.384;-4.386;2023-04-03T04:39:06;10.44;69.02
73547;SHT30;61807;48.384;-4.386;2023-04-03T04:41:31;10.41;68.83
73547;SHT30;61807;48.384;-4.386;2023-04-03T04:43:57;10.46;68.96
73547;SHT30;61807;48.384;-4.386;2023-04-03T04:46:23;10.43;69.27
73547;SHT30;61807;48.384;-4.386;2023-04-03T04:48:49;10.46;69.12
73547;SHT30;61807;48.384;-4.386;2023-04-03T04:51:15;10.44;68.87
73547;SHT30;61807;48.384;-4.386;2023-04-03T04:53:41;10.47;68.97
73547;SHT30;61807;48.384;-4.386;2023-04-03T04:56:06;10.47;68.87
73547;SHT30;61807;48.384;-4.386;2023-04-03T04:58:32;10.41;68.98
73547;SHT30;61807;48.384;-4.386;2023-04-03T05:01:03;10.38;69.03
73547;SHT30;61807;48.384;-4.386;2023-04-03T05:03:28;10.38;68.99
73547;SHT30;61807;48.384;-4.386;2023-04-03T05:05:54;10.36;68.95
73547;SHT30;61807;48.384;-4.386;2023-04-03T05:08:19;10.33;68.92
73547;SHT30;61807;48.384;-4.386;2023-04-03T05:10:46;10.27;68.81
73547;SHT30;61807;48.384;-4.386;2023-04-03T05:13:12;10.18;68.87
73547;SHT30;61807;48.384;-4.386;2023-04-03T05:15:37;10.13;68.84
73547;SHT30;61807;48.384;-4.386;2023-04-03T05:18:02;10.12;68.81
73547;SHT30;61807;48.384;-4.386;2023-04-03T05:20:28;10.05;68.77
73547;SHT30;61807;48.384;-4.386;2023-04-03T05:22:53;9.97;68.83
73547;SHT30;61807;48.384;-4.386;2023-04-03T05:25:19;9.90;68.88
73547;SHT30;61807;48.384;-4.386;2023-04-03T05:27:44;9.88;68.96
73547;SHT30;61807;48.384;-4.386;2023-04-03T05:30:10;9.76;69.10
73547;SHT30;61807;48.384;-4.386;2023-04-03T05:32:36;9.63;69.18
73547;SHT30;61807;48.384;-4.386;2023-04-03T05:35:01;9.55;69.33
73547;SHT30;61807;48.384;-4.386;2023-04-03T05:37:27;9.47;69.27
73547;SHT30;61807;48.384;-4.386;2023-04-03T05:39:52;9.39;69.44
73547;SHT30;61807;48.384;-4.386;2023-04-03T05:42:17;9.28;69.47
73547;SHT30;61807;48.384;-4.386;2023-04-03T05:44:43;9.24;69.44
73547;SHT30;61807;48.384;-4.386;2023-04-03T05:47:09;9.14;69.66
73547;SHT30;61807;48.384;-4.386;2023-04-03T05:49:35;9.06;69.74
73547;SHT30;61807;48.384;-4.386;2023-04-03T05:52:01;9.01;69.70
73547;SHT30;61807;48.384;-4.386;2023-04-03T05:54:28;8.91;69.85
73547;SHT30;61807;48.384;-4.386;2023-04-03T05:56:54;8.89;69.88
73547;SHT30;61807;48.384;-4.386;2023-04-03T05:59:20;8.81;69.90
73547;SHT30;61807;48.384;-4.386;2023-04-03T06:01:46;8.79;70.09
73547;SHT30;61807;48.384;-4.386;2023-04-03T06:04:11;8.79;70.13
73547;SHT30;61807;48.384;-4.386;2023-04-03T06:09:12;8.75;70.08
73547;SHT30;61807;48.384;-4.386;2023-04-03T06:11:37;8.75;70.14
73547;SHT30;61807;48.384;-4.386;2023-04-03T06:14:03;8.72;70.21
73547;SHT30;61807;48.384;-4.386;2023-04-03T06:16:28;8.72;70.20
73547;SHT30;61807;48.384;-4.386;2023-04-03T06:18:54;8.72;70.15
73547;SHT30;61807;48.384;-4.386;2023-04-03T06:21:21;8.70;70.12
73547;SHT30;61807;48.384;-4.386;2023-04-03T06:23:46;8.72;70.11
73547;SHT30;61807;48.384;-4.386;2023-04-03T06:26:12;8.76;70.15
73547;SHT30;61807;48.384;-4.386;2023-04-03T06:28:37;8.77;70.11
73547;SHT30;61807;48.384;-4.386;2023-04-03T06:31:02;8.79;70.21
73547;SHT30;61807;48.384;-4.386;2023-04-03T06:33:28;8.79;70.32
73547;SHT30;61807;48.384;-4.386;2023-04-03T06:36:03;8.80;70.26
73547;SHT30;61807;48.384;-4.386;2023-04-03T06:38:29;8.84;70.37
73547;SHT30;61807;48.384;-4.386;2023-04-03T06:40:55;8.86;70.28
73547;SHT30;61807;48.384;-4.386;2023-04-03T06:43:21;8.90;70.17
73547;SHT30;61807;48.384;-4.386;2023-04-03T06:45:46;8.91;70.21
73547;SHT30;61807;48.384;-4.386;2023-04-03T06:48:12;8.96;70.20
73547;SHT30;61807;48.384;-4.386;2023-04-03T06:50:38;9.00;70.21
73547;SHT30;61807;48.384;-4.386;2023-04-03T06:53:04;9.04;70.03
73547;SHT30;61807;48.384;-4.386;2023-04-03T06:55:29;9.13;69.84
73547;SHT30;61807;48.384;-4.386;2023-04-03T06:57:55;9.18;69.79
73547;SHT30;61807;48.384;-4.386;2023-04-03T07:00:21;9.27;69.56
73547;SHT30;61807;48.384;-4.386;2023-04-03T07:02:46;9.30;69.16
73547;SHT30;61807;48.384;-4.386;2023-04-03T07:05:12;9.35;69.23
73547;SHT30;61807;48.384;-4.386;2023-04-03T07:07:38;9.38;69.17
73547;SHT30;61807;48.384;-4.386;2023-04-03T07:10:05;9.44;68.98
73547;SHT30;61807;48.384;-4.386;2023-04-03T07:12:31;9.45;68.78
73547;SHT30;61807;48.384;-4.386;2023-04-03T07:14:56;9.42;68.91
73547;SHT30;61807;48.384;-4.386;2023-04-03T07:17:22;9.48;68.89
73547;SHT30;61807;48.384;-4.386;2023-04-03T07:19:48;9.51;68.89
73547;SHT30;61807;48.384;-4.386;2023-04-03T07:22:13;9.54;68.87
73547;SHT30;61807;48.384;-4.386;2023-04-03T07:24:38;9.58;68.70
73547;SHT30;61807;48.384;-4.386;2023-04-03T07:27:04;9.59;68.76
73547;SHT30;61807;48.384;-4.386;2023-04-03T07:29:30;9.61;68.73
73547;SHT30;61807;48.384;-4.386;2023-04-03T07:31:56;9.62;68.65
73547;SHT30;61807;48.384;-4.386;2023-04-03T07:34:22;9.63;68.65
73547;SHT30;61807;48.384;-4.386;2023-04-03T07:36:47;9.68;68.63
73547;SHT30;61807;48.384;-4.386;2023-04-03T07:39:13;9.75;68.67
73547;SHT30;61807;48.384;-4.386;2023-04-03T07:41:38;9.83;68.47
73547;SHT30;61807;48.384;-4.386;2023-04-03T07:44:05;9.89;68.47
73547;SHT30;61807;48.384;-4.386;2023-04-03T07:46:30;9.99;68.42
73547;SHT30;61807;48.384;-4.386;2023-04-03T07:48:56;10.03;67.93
73547;SHT30;61807;48.384;-4.386;2023-04-03T07:51:21;10.02;68.08
73547;SHT30;61807;48.384;-4.386;2023-04-03T07:53:47;10.06;68.04
73547;SHT30;61807;48.384;-4.386;2023-04-03T07:56:13;10.12;68.15
73547;SHT30;61807;48.384;-4.386;2023-04-03T07:58:39;10.17;67.77
73547;SHT30;61807;48.384;-4.386;2023-04-03T08:01:04;10.23;67.47
73547;SHT30;61807;48.384;-4.386;2023-04-03T08:03:29;10.33;67.34
73547;SHT30;61807;48.384;-4.386;2023-04-03T08:06:02;10.47;67.12
73547;SHT30;61807;48.384;-4.386;2023-04-03T08:08:28;10.53;67.01
73547;SHT30;61807;48.384;-4.386;2023-04-03T08:11:00;10.63;66.82
73547;SHT30;61807;48.384;-4.386;2023-04-03T08:13:26;10.68;66.71
73547;SHT30;61807;48.384;-4.386;2023-04-03T08:15:51;10.72;66.51
73547;SHT30;61807;48.384;-4.386;2023-04-03T08:18:17;10.69;66.26
73547;SHT30;61807;48.384;-4.386;2023-04-03T08:20:44;10.71;66.39
73547;SHT30;61807;48.384;-4.386;2023-04-03T08:23:10;10.76;66.02
73547;SHT30;61807;48.384;-4.386;2023-04-03T08:25:40;10.86;66.06
73547;SHT30;61807;48.384;-4.386;2023-04-03T08:28:06;11.05;66.35
73547;SHT30;61807;48.384;-4.386;2023-04-03T08:30:32;11.32;66.24
73547;SHT30;61807;48.384;-4.386;2023-04-03T08:33:00;11.43;65.76
73547;SHT30;61807;48.384;-4.386;2023-04-03T08:35:26;11.50;65.34
73547;SHT30;61807;48.384;-4.386;2023-04-03T08:37:51;11.63;65.11
73547;SHT30;61807;48.384;-4.386;2023-04-03T08:40:16;11.78;64.85
73547;SHT30;61807;48.384;-4.386;2023-04-03T08:48:22;12.39;62.90
73547;SHT30;61807;48.384;-4.386;2023-04-03T08:50:53;12.41;62.62
73547;SHT30;61807;48.384;-4.386;2023-04-03T08:53:25;12.42;62.17
73547;SHT30;61807;48.384;-4.386;2023-04-03T08:55:54;12.35;61.77
73547;SHT30;61807;48.384;-4.386;2023-04-03T08:58:23;12.33;62.11
73547;SHT30;61807;48.384;-4.386;2023-04-03T09:01:00;12.36;62.03
73547;SHT30;61807;48.384;-4.386;2023-04-03T09:03:32;12.41;61.93
73547;SHT30;61807;48.384;-4.386;2023-04-03T09:08:40;12.66;61.77
73547;SHT30;61807;48.384;-4.386;2023-04-03T09:11:35;12.79;61.53
73547;SHT30;61807;48.384;-4.386;2023-04-03T09:14:23;12.90;61.21
73547;SHT30;61807;48.384;-4.386;2023-04-03T09:16:55;13.06;60.83
73547;SHT30;61807;48.384;-4.386;2023-04-03T09:19:34;13.24;60.83
73547;SHT30;61807;48.384;-4.386;2023-04-03T09:24:39;13.87;60.92
73547;SHT30;61807;48.384;-4.386;2023-04-03T09:27:09;14.28;60.55
73547;SHT30;61807;48.384;-4.386;2023-04-03T09:29:39;14.64;60.22
73547;SHT30;61807;48.384;-4.386;2023-04-03T09:34:54;15.09;60.10
73547;SHT30;61807;48.384;-4.386;2023-04-03T09:37:42;15.06;58.82
73547;SHT30;61807;48.384;-4.386;2023-04-03T09:40:32;14.82;58.87
73547;SHT30;61807;48.384;-4.386;2023-04-03T09:45:49;14.42;58.07
73547;SHT30;61807;48.384;-4.386;2023-04-03T09:48:18;14.33;58.13
73547;SHT30;61807;48.384;-4.386;2023-04-03T09:53:44;13.86;57.94
73547;SHT30;61807;48.384;-4.386;2023-04-03T09:59:27;13.59;58.05
73547;SHT30;61807;48.384;-4.386;2023-04-03T10:01:35;13.44;58.06
73547;SHT30;61807;48.384;-4.386;2023-04-03T10:04:19;13.34;58.59
73547;SHT30;61807;48.384;-4.386;2023-04-03T10:06:52;13.25;58.68
73547;SHT30;61807;48.384;-4.386;2023-04-03T10:09:21;13.12;58.72
73547;SHT30;61807;48.384;-4.386;2023-04-03T10:12:13;13.06;58.73
73547;SHT30;61807;48.384;-4.386;2023-04-03T10:15:00;13.03;59.03
73547;SHT30;61807;48.384;-4.386;2023-04-03T10:20:27;13.17;58.72
73547;SHT30;61807;48.384;-4.386;2023-04-03T10:26:17;13.41;59.08
73547;SHT30;61807;48.384;-4.386;2023-04-03T10:29:06;13.45;58.94
73547;SHT30;61807;48.384;-4.386;2023-04-03T10:34:44;13.58;58.13
73547;SHT30;61807;48.384;-4.386;2023-04-03T10:37:35;13.51;58.34
73547;SHT30;61807;48.384;-4.386;2023-04-03T10:40:21;13.42;58.59
73547;SHT30;61807;48.384;-4.386;2023-04-03T10:42:54;13.31;58.32
73547;SHT30;61807;48.384;-4.386;2023-04-03T10:45:29;13.24;58.20
73547;SHT30;61807;48.384;-4.386;2023-04-03T10:48:18;13.17;58.70
73547;SHT30;61807;48.384;-4.386;2023-04-03T10:51:16;13.12;58.83
73547;SHT30;61807;48.384;-4.386;2023-04-03T10:54:05;13.15;58.65
73547;SHT30;61807;48.384;-4.386;2023-04-03T10:56:53;13.12;58.80
73547;SHT30;61807;48.384;-4.386;2023-04-03T11:04:42;13.14;58.43
73547;SHT30;61807;48.384;-4.386;2023-04-03T11:07:10;13.18;58.83
73547;SHT30;61807;48.384;-4.386;2023-04-03T11:09:42;13.17;59.09
73547;SHT30;61807;48.384;-4.386;2023-04-03T11:14:55;13.24;59.44
73547;SHT30;61807;48.384;-4.386;2023-04-03T11:17:33;13.31;59.62
73547;SHT30;61807;48.384;-4.386;2023-04-03T11:20:21;13.38;59.05
73547;SHT30;61807;48.384;-4.386;2023-04-03T11:22:58;13.42;59.35
73547;SHT30;61807;48.384;-4.386;2023-04-03T11:25:26;13.42;58.55
73547;SHT30;61807;48.384;-4.386;2023-04-03T11:27:59;13.47;59.05
73547;SHT30;61807;48.384;-4.386;2023-04-03T11:30:54;13.54;59.17
73547;SHT30;61807;48.384;-4.386;2023-04-03T11:36:33;13.78;58.76
73547;SHT30;61807;48.384;-4.386;2023-04-03T11:39:10;13.96;58.61
73547;SHT30;61807;48.384;-4.386;2023-04-03T11:41:40;14.14;58.25
73547;SHT30;61807;48.384;-4.386;2023-04-03T11:44:33;14.44;57.47
73547;SHT30;61807;48.384;-4.386;2023-04-03T11:47:01;14.75;57.15
73547;SHT30;61807;48.384;-4.386;2023-04-03T11:50:02;15.05;55.75
73547;SHT30;61807;48.384;-4.386;2023-04-03T11:57:47;15.91;54.22
73547;SHT30;61807;48.384;-4.386;2023-04-03T12:05:58;16.73;52.83
73547;SHT30;61807;48.384;-4.386;2023-04-03T12:40:24;23.51;42.45
73547;SHT30;61807;48.384;-4.386;2023-04-03T12:46:07;23.97;41.25
73547;SHT30;61807;48.384;-4.386;2023-04-03T12:51:22;24.09;40.55
73547;SHT30;61807;48.384;-4.386;2023-04-03T12:53:52;24.39;40.77
73547;SHT30;61807;48.384;-4.386;2023-04-03T12:58:48;24.70;40.07
73547;SHT30;61807;48.384;-4.386;2023-04-03T13:01:20;24.80;39.49
73547;SHT30;61807;48.384;-4.386;2023-04-03T13:03:52;24.93;39.12
73547;SHT30;61807;48.384;-4.386;2023-04-03T13:06:31;25.03;38.92
73547;SHT30;61807;48.384;-4.386;2023-04-03T13:08:59;25.18;39.12
73547;SHT30;61807;48.384;-4.386;2023-04-03T13:11:29;25.20;38.47
73547;SHT30;61807;48.384;-4.386;2023-04-03T13:13:59;25.11;38.49
73547;SHT30;61807;48.384;-4.386;2023-04-03T13:16:25;25.03;38.26
73547;SHT30;61807;48.384;-4.386;2023-04-03T13:18:53;24.84;38.10
73547;SHT30;61807;48.384;-4.386;2023-04-03T13:21:22;24.45;38.22
73547;SHT30;61807;48.384;-4.386;2023-04-03T13:23:52;23.81;39.23
73547;SHT30;61807;48.384;-4.386;2023-04-03T13:26:20;23.13;39.65
73547;SHT30;61807;48.384;-4.386;2023-04-03T13:28:47;22.45;40.62
73547;SHT30;61807;48.384;-4.386;2023-04-03T13:33:55;21.21;42.95
73547;SHT30;61807;48.384;-4.386;2023-04-03T13:36:23;20.69;43.44
73547;SHT30;61807;48.384;-4.386;2023-04-03T13:41:30;19.81;44.22
73547;SHT30;61807;48.384;-4.386;2023-04-03T13:43:55;19.78;44.80
73547;SHT30;61807;48.384;-4.386;2023-04-03T13:46:27;20.04;44.09
73547;SHT30;61807;48.384;-4.386;2023-04-03T13:48:55;20.33;43.16
73547;SHT30;61807;48.384;-4.386;2023-04-03T13:51:24;20.63;42.90
73547;SHT30;61807;48.384;-4.386;2023-04-03T13:53:58;20.97;41.82
73547;SHT30;61807;48.384;-4.386;2023-04-03T13:56:30;21.31;41.46
73547;SHT30;61807;48.384;-4.386;2023-04-03T13:59:23;21.65;40.84
73547;SHT30;61807;48.384;-4.386;2023-04-03T14:02:14;22.06;40.48
73547;SHT30;61807;48.384;-4.386;2023-04-03T14:07:05;22.48;39.93
73547;SHT30;61807;48.384;-4.386;2023-04-03T14:09:30;22.59;39.85
73547;SHT30;61807;48.384;-4.386;2023-04-03T14:12:04;22.76;39.35
73547;SHT30;61807;48.384;-4.386;2023-04-03T14:14:33;22.85;38.40
73547;SHT30;61807;48.384;-4.386;2023-04-03T14:17:02;22.87;38.94
73547;SHT30;61807;48.384;-4.386;2023-04-03T14:19:34;23.00;39.08
73547;SHT30;61807;48.384;-4.386;2023-04-03T14:22:05;23.05;39.09
73547;SHT30;61807;48.384;-4.386;2023-04-03T14:24:31;23.17;38.85
73547;SHT30;61807;48.384;-4.386;2023-04-03T14:26:57;23.22;38.77
73547;SHT30;61807;48.384;-4.386;2023-04-03T14:29:23;23.22;38.54
73547;SHT30;61807;48.384;-4.386;2023-04-03T14:31:49;23.34;38.47
73547;SHT30;61807;48.384;-4.386;2023-04-03T14:34:15;23.30;38.54
73547;SHT30;61807;48.384;-4.386;2023-04-03T14:36:43;23.33;39.35
73547;SHT30;61807;48.384;-4.386;2023-04-03T14:39:17;23.36;38.93
73547;SHT30;61807;48.384;-4.386;2023-04-03T14:41:43;23.30;38.56
73547;SHT30;61807;48.384;-4.386;2023-04-03T14:44:09;23.06;38.48
73547;SHT30;61807;48.384;-4.386;2023-04-03T14:46:37;22.89;38.50
73547;SHT30;61807;48.384;-4.386;2023-04-03T14:49:14;22.81;38.89
73547;SHT30;61807;48.384;-4.386;2023-04-03T14:51:39;22.79;39.25
73547;SHT30;61807;48.384;-4.386;2023-04-03T14:54:05;22.79;39.81
73547;SHT30;61807;48.384;-4.386;2023-04-03T14:56:35;22.57;40.13
73547;SHT30;61807;48.384;-4.386;2023-04-03T14:59:01;22.20;41.05
73547;SHT30;61807;48.384;-4.386;2023-04-03T15:01:27;21.76;41.61
73547;SHT30;61807;48.384;-4.386;2023-04-03T15:03:53;21.21;42.41
73547;SHT30;61807;48.384;-4.386;2023-04-03T15:06:19;20.60;42.68
73547;SHT30;61807;48.384;-4.386;2023-04-03T15:08:46;20.08;43.91
73547;SHT30;61807;48.384;-4.386;2023-04-03T15:11:13;19.61;44.75
73547;SHT30;61807;48.384;-4.386;2023-04-03T15:13:39;19.23;45.32
73547;SHT30;61807;48.384;-4.386;2023-04-03T15:16:14;19.05;45.50
73547;SHT30;61807;48.384;-4.386;2023-04-03T15:18:40;18.91;45.71
73547;SHT30;61807;48.384;-4.386;2023-04-03T15:21:06;18.68;45.97
73547;SHT30;61807;48.384;-4.386;2023-04-03T15:23:31;18.48;46.48
73547;SHT30;61807;48.384;-4.386;2023-04-03T15:25:57;18.26;46.61
73547;SHT30;61807;48.384;-4.386;2023-04-03T15:28:43;18.01;47.43
73547;SHT30;61807;48.384;-4.386;2023-04-03T15:31:09;17.75;47.88
73547;SHT30;61807;48.384;-4.386;2023-04-03T15:33:35;17.48;48.33
73547;SHT30;61807;48.384;-4.386;2023-04-03T15:36:02;17.28;48.56
73547;SHT30;61807;48.384;-4.386;2023-04-03T15:38:27;17.10;48.69
73547;SHT30;61807;48.384;-4.386;2023-04-03T15:40:54;16.88;49.59
73547;SHT30;61807;48.384;-4.386;2023-04-03T15:43:20;16.73;50.38
73547;SHT30;61807;48.384;-4.386;2023-04-03T15:45:46;16.60;50.69
73547;SHT30;61807;48.384;-4.386;2023-04-03T15:48:12;16.48;51.11
73547;SHT30;61807;48.384;-4.386;2023-04-03T15:50:38;16.33;51.39
73547;SHT30;61807;48.384;-4.386;2023-04-03T15:53:04;16.25;51.82
73547;SHT30;61807;48.384;-4.386;2023-04-03T15:55:32;16.11;52.16
73547;SHT30;61807;48.384;-4.386;2023-04-03T15:57:58;16.02;52.30
73547;SHT30;61807;48.384;-4.386;2023-04-03T16:00:24;15.95;52.58
73547;SHT30;61807;48.384;-4.386;2023-04-03T16:02:55;15.85;52.68
73547;SHT30;61807;48.384;-4.386;2023-04-03T16:05:23;15.73;52.73
73547;SHT30;61807;48.384;-4.386;2023-04-03T16:07:49;15.61;52.93
73547;SHT30;61807;48.384;-4.386;2023-04-03T16:10:16;15.51;53.06
73547;SHT30;61807;48.384;-4.386;2023-04-03T16:12:43;15.40;53.15
73547;SHT30;61807;48.384;-4.386;2023-04-03T16:15:09;15.26;53.36
73547;SHT30;61807;48.384;-4.386;2023-04-03T16:17:37;15.09;53.58
73547;SHT30;61807;48.384;-4.386;2023-04-03T16:20:03;14.95;54.02
73547;SHT30;61807;48.384;-4.386;2023-04-03T16:22:30;14.84;54.43
73547;SHT30;61807;48.384;-4.386;2023-04-03T16:24:56;14.72;54.61
73547;SHT30;61807;48.384;-4.386;2023-04-03T16:27:22;14.61;54.93
73547;SHT30;61807;48.384;-4.386;2023-04-03T16:29:52;14.55;55.39
73547;SHT30;61807;48.384;-4.386;2023-04-03T16:32:18;14.47;55.50
73547;SHT30;61807;48.384;-4.386;2023-04-03T16:34:43;14.45;55.78
73547;SHT30;61807;48.384;-4.386;2023-04-03T16:37:09;14.38;55.83
73547;SHT30;61807;48.384;-4.386;2023-04-03T16:39:35;14.34;56.08
73547;SHT30;61807;48.384;-4.386;2023-04-03T16:42:00;14.34;56.24
73547;SHT30;61807;48.384;-4.386;2023-04-03T16:44:26;14.33;56.31
73547;SHT30;61807;48.384;-4.386;2023-04-03T16:46:52;14.30;56.53
73547;SHT30;61807;48.384;-4.386;2023-04-03T16:49:17;14.28;56.69
73547;SHT30;61807;48.384;-4.386;2023-04-03T16:51:43;14.28;56.82
73547;SHT30;61807;48.384;-4.386;2023-04-03T16:54:09;14.23;57.07
73547;SHT30;61807;48.384;-4.386;2023-04-03T16:56:36;14.26;57.14
73547;SHT30;61807;48.384;-4.386;2023-04-03T16:59:02;14.27;57.32
73547;SHT30;61807;48.384;-4.386;2023-04-03T17:01:27;14.24;57.35
73547;SHT30;61807;48.384;-4.386;2023-04-03T17:03:53;14.23;57.55
73547;SHT30;61807;48.384;-4.386;2023-04-03T17:06:20;14.24;57.74
73547;SHT30;61807;48.384;-4.386;2023-04-03T17:08:49;14.27;57.62
73547;SHT30;61807;48.384;-4.386;2023-04-03T17:11:15;14.30;57.71